createdAt,value
2018-11-10T00:01:31.925Z,5.97
2018-11-10T00:04:00.079Z,6.37
2018-11-10T00:06:28.462Z,4.93
2018-11-10T00:08:56.595Z,4.30
2018-11-10T00:11:24.743Z,3.83
2018-11-10T00:13:52.887Z,4.73
2018-11-10T00:16:21.866Z,6.30
2018-11-10T00:18:50.030Z,4.93
2018-11-10T00:21:18.166Z,4.53
2018-11-10T00:23:46.309Z,5.10
2018-11-10T00:26:14.483Z,5.23
2018-11-10T00:28:42.625Z,5.33
2018-11-10T00:31:10.760Z,5.73
2018-11-10T00:33:39.303Z,4.73
2018-11-10T00:36:07.453Z,5.73
2018-11-10T00:38:35.603Z,5.23
2018-11-10T00:41:03.738Z,5.10
2018-11-10T00:43:31.894Z,4.23
2018-11-10T00:46:00.041Z,5.00
2018-11-10T00:48:28.193Z,4.80
2018-11-10T00:50:56.342Z,4.30
2018-11-10T00:53:24.492Z,4.17
2018-11-10T00:55:52.656Z,5.60
2018-11-10T00:58:20.826Z,4.23
2018-11-10T01:00:48.959Z,4.53
2018-11-10T01:03:17.116Z,4.60
2018-11-10T01:05:45.266Z,3.70
2018-11-10T01:08:13.410Z,4.93
2018-11-10T01:10:41.562Z,5.40
2018-11-10T01:13:09.725Z,4.63
2018-11-10T01:15:37.872Z,5.10
2018-11-10T01:18:06.051Z,5.90
2018-11-10T01:20:34.187Z,4.50
2018-11-10T01:23:02.342Z,4.80
2018-11-10T01:25:30.490Z,4.27
2018-11-10T01:27:58.696Z,4.67
2018-11-10T01:30:26.786Z,5.10
2018-11-10T01:32:54.941Z,4.13
2018-11-10T01:35:23.090Z,4.90
2018-11-10T01:37:51.239Z,5.27
2018-11-10T01:40:19.374Z,5.00
2018-11-10T01:42:47.547Z,5.70
2018-11-10T01:45:16.931Z,5.03
2018-11-10T01:47:45.586Z,4.80
2018-11-10T01:50:13.763Z,4.60
2018-11-10T01:52:42.231Z,4.47
2018-11-10T01:55:11.326Z,4.10
2018-11-10T01:57:40.130Z,3.77
2018-11-10T02:00:11.562Z,4.77
2018-11-10T02:02:39.706Z,4.67
2018-11-10T02:05:07.903Z,4.90
2018-11-10T02:07:36.100Z,4.70
2018-11-10T02:10:04.842Z,4.67
2018-11-10T02:12:33.054Z,5.43
2018-11-10T02:15:01.187Z,5.23
2018-11-10T02:17:29.355Z,4.50
2018-11-10T02:19:57.485Z,5.50
2018-11-10T02:22:25.687Z,4.60
2018-11-10T02:24:53.809Z,4.20
2018-11-10T02:27:23.051Z,4.87
2018-11-10T02:29:52.524Z,4.90
2018-11-10T02:32:20.796Z,4.63
2018-11-10T02:34:49.177Z,5.83
2018-11-10T02:37:17.319Z,4.20
2018-11-10T02:39:45.472Z,4.83
2018-11-10T02:42:13.720Z,5.57
2018-11-10T02:44:41.925Z,5.10
2018-11-10T02:47:10.110Z,4.70
2018-11-10T02:49:38.309Z,6.13
2018-11-10T02:52:06.458Z,5.70
2018-11-10T02:54:34.623Z,5.83
2018-11-10T02:57:02.766Z,5.63
2018-11-10T02:59:30.924Z,5.93
2018-11-10T03:01:59.068Z,5.10
2018-11-10T03:04:27.245Z,5.87
2018-11-10T03:06:55.389Z,6.30
2018-11-10T03:09:23.540Z,5.43
2018-11-10T03:11:51.674Z,4.40
2018-11-10T03:14:19.825Z,5.73
2018-11-10T03:16:47.987Z,5.73
2018-11-10T03:19:16.183Z,5.93
2018-11-10T03:21:44.324Z,5.37
2018-11-10T03:24:12.459Z,6.57
2018-11-10T03:26:40.618Z,4.73
2018-11-10T03:29:08.825Z,5.07
2018-11-10T03:31:36.974Z,5.10
2018-11-10T03:34:05.146Z,5.73
2018-11-10T03:36:33.293Z,5.70
2018-11-10T03:39:01.426Z,5.73
2018-11-10T03:41:29.554Z,4.40
2018-11-10T03:43:57.693Z,4.93
2018-11-10T03:46:29.479Z,6.20
2018-11-10T03:48:57.684Z,5.00
2018-11-10T03:51:25.749Z,5.00
2018-11-10T03:53:53.898Z,4.90
2018-11-10T03:56:22.030Z,4.07
2018-11-10T03:58:50.190Z,4.17
2018-11-10T04:01:18.348Z,5.23
2018-11-10T04:03:46.497Z,4.53
2018-11-10T04:06:14.641Z,4.23
2018-11-10T04:08:42.781Z,3.83
2018-11-10T04:11:10.934Z,4.63
2018-11-10T04:13:39.094Z,4.40
2018-11-10T04:16:07.220Z,5.33
2018-11-10T04:18:35.374Z,4.93
2018-11-10T04:21:03.521Z,5.33
2018-11-10T04:23:31.669Z,5.03
2018-11-10T04:25:59.828Z,4.33
2018-11-10T04:28:27.967Z,5.30
2018-11-10T04:30:56.097Z,4.93
2018-11-10T04:33:24.225Z,5.80
2018-11-10T04:35:52.352Z,4.60
2018-11-10T04:38:23.587Z,4.63
2018-11-10T04:40:51.746Z,4.43
2018-11-10T04:43:19.877Z,4.70
2018-11-10T04:45:47.985Z,5.13
2018-11-10T04:48:16.113Z,4.87
2018-11-10T04:50:44.228Z,4.87
2018-11-10T04:53:12.355Z,4.67
2018-11-10T04:55:40.471Z,4.93
2018-11-10T04:58:08.604Z,3.43
2018-11-10T05:00:36.733Z,3.97
2018-11-10T05:03:04.966Z,5.07
2018-11-10T05:05:33.090Z,4.00
2018-11-10T05:08:01.225Z,5.40
2018-11-10T05:10:29.361Z,4.33
2018-11-10T05:12:57.486Z,4.33
2018-11-10T05:15:25.608Z,3.87
2018-11-10T05:17:53.731Z,5.13
2018-11-10T05:20:21.867Z,5.40
2018-11-10T05:22:50.051Z,4.43
2018-11-10T05:25:24.820Z,4.97
2018-11-10T05:27:52.933Z,4.93
2018-11-10T05:30:21.058Z,5.40
2018-11-10T05:32:49.187Z,5.30
2018-11-10T05:35:17.307Z,4.73
2018-11-10T05:37:45.447Z,4.50
2018-11-10T05:40:13.555Z,4.10
2018-11-10T05:42:41.942Z,5.33
2018-11-10T05:45:10.318Z,4.80
2018-11-10T05:47:38.454Z,6.33
2018-11-10T05:50:07.081Z,4.60
2018-11-10T05:52:35.200Z,3.93
2018-11-10T05:55:03.323Z,4.23
2018-11-10T05:57:31.451Z,4.13
2018-11-10T05:59:59.598Z,4.20
2018-11-10T06:02:27.723Z,4.07
2018-11-10T06:04:55.850Z,5.43
2018-11-10T06:07:23.969Z,4.80
2018-11-10T06:09:52.265Z,5.70
2018-11-10T06:12:20.251Z,5.10
2018-11-10T06:14:48.389Z,4.63
2018-11-10T06:17:16.810Z,4.40
2018-11-10T06:19:44.936Z,4.50
2018-11-10T06:22:13.065Z,5.20
2018-11-10T06:24:41.193Z,4.37
2018-11-10T06:27:09.310Z,4.23
2018-11-10T06:29:37.453Z,5.63
2018-11-10T06:32:05.594Z,4.67
2018-11-10T06:34:33.729Z,5.00
2018-11-10T06:37:01.856Z,4.43
2018-11-10T06:39:30.034Z,4.77
2018-11-10T06:41:58.193Z,5.20
2018-11-10T06:44:26.395Z,5.03
2018-11-10T06:46:54.579Z,4.10
2018-11-10T06:49:22.667Z,4.83
2018-11-10T06:51:50.860Z,4.70
2018-11-10T06:54:18.989Z,4.17
2018-11-10T06:56:47.130Z,3.77
2018-11-10T06:59:15.266Z,4.37
2018-11-10T07:01:43.406Z,4.60
2018-11-10T07:04:11.558Z,4.20
2018-11-10T07:06:39.685Z,3.93
2018-11-10T07:09:08.763Z,4.40
2018-11-10T07:11:36.917Z,4.40
2018-11-10T07:14:05.246Z,4.83
2018-11-10T07:16:33.412Z,4.60
2018-11-10T07:19:01.571Z,3.80
2018-11-10T07:21:29.673Z,4.03
2018-11-10T07:23:57.836Z,4.10
2018-11-10T07:26:25.973Z,5.07
2018-11-10T07:28:54.149Z,5.10
2018-11-10T07:31:22.334Z,4.50
2018-11-10T07:33:50.706Z,4.53
2018-11-10T07:36:18.859Z,3.80
2018-11-10T07:38:46.989Z,4.33
2018-11-10T07:41:15.162Z,3.60
2018-11-10T07:43:43.291Z,5.40
2018-11-10T07:46:11.534Z,4.70
2018-11-10T07:48:39.769Z,5.10
2018-11-10T07:51:07.918Z,3.97
2018-11-10T07:53:36.041Z,4.07
2018-11-10T07:56:04.371Z,4.03
2018-11-10T07:58:32.367Z,4.50
2018-11-10T08:01:00.493Z,5.20
2018-11-10T08:03:28.618Z,5.23
2018-11-10T08:05:56.741Z,4.60
2018-11-10T08:08:24.860Z,6.03
2018-11-10T08:10:52.990Z,5.23
2018-11-10T08:13:21.125Z,5.53
2018-11-10T08:15:49.282Z,6.23
2018-11-10T08:18:17.428Z,4.97
2018-11-10T08:20:45.576Z,4.20
2018-11-10T08:23:13.729Z,5.03
2018-11-10T08:25:41.853Z,4.33
2018-11-10T08:28:10.045Z,4.67
2018-11-10T08:30:38.183Z,4.63
2018-11-10T08:33:06.361Z,4.33
2018-11-10T08:35:34.490Z,5.20
2018-11-10T08:38:02.622Z,4.60
2018-11-10T08:40:30.766Z,4.00
2018-11-10T08:42:58.912Z,6.03
2018-11-10T08:45:27.046Z,4.30
2018-11-10T08:47:55.210Z,4.70
2018-11-10T08:50:23.314Z,3.73
2018-11-10T08:52:51.463Z,4.23
2018-11-10T08:55:19.593Z,5.23
2018-11-10T08:57:47.735Z,4.40
2018-11-10T09:00:15.872Z,4.80
2018-11-10T09:02:43.993Z,5.43
2018-11-10T09:05:12.506Z,3.90
2018-11-10T09:07:41.090Z,5.53
2018-11-10T09:10:10.905Z,6.20
2018-11-10T09:12:39.102Z,5.23
2018-11-10T09:15:08.985Z,7.00
2018-11-10T09:17:37.141Z,7.57
2018-11-10T09:20:07.783Z,4.87
2018-11-10T09:22:35.947Z,6.10
2018-11-10T09:25:05.076Z,5.90
2018-11-10T09:27:33.223Z,5.67
2018-11-10T09:30:01.382Z,5.70
2018-11-10T09:32:29.534Z,5.27
2018-11-10T09:34:57.688Z,6.67
2018-11-10T09:37:25.829Z,6.50
2018-11-10T09:39:53.997Z,7.97
2018-11-10T09:42:22.277Z,7.70
2018-11-10T09:44:50.282Z,7.53
2018-11-10T09:47:18.578Z,9.27
2018-11-10T09:49:46.765Z,10.30
2018-11-10T09:52:14.895Z,10.90
2018-11-10T09:54:43.385Z,7.77
2018-11-10T09:57:11.557Z,8.33
2018-11-10T09:59:39.710Z,7.33
2018-11-10T10:02:08.254Z,7.63
2018-11-10T10:04:36.080Z,6.50
2018-11-10T10:07:04.396Z,8.00
2018-11-10T10:09:32.545Z,7.67
2018-11-10T10:12:00.681Z,7.10
2018-11-10T10:14:28.827Z,8.80
2018-11-10T10:16:57.072Z,7.50
2018-11-10T10:19:25.326Z,6.77
2018-11-10T10:21:53.559Z,6.73
2018-11-10T10:24:21.599Z,6.10
2018-11-10T10:26:49.761Z,6.60
2018-11-10T10:29:17.925Z,7.00
2018-11-10T10:31:46.054Z,7.17
2018-11-10T10:34:14.266Z,6.23
2018-11-10T10:36:42.350Z,6.33
2018-11-10T10:39:10.677Z,6.63
2018-11-10T10:41:39.389Z,5.33
2018-11-10T10:44:08.475Z,6.10
2018-11-10T10:46:36.639Z,5.70
2018-11-10T10:49:04.923Z,6.90
2018-11-10T10:51:33.028Z,7.20
2018-11-10T10:54:01.152Z,6.53
2018-11-10T10:56:29.325Z,8.00
2018-11-10T10:58:57.435Z,7.50
2018-11-10T11:01:31.162Z,7.10
2018-11-10T11:04:04.589Z,7.00
2018-11-10T11:06:32.925Z,7.03
2018-11-10T11:09:01.198Z,8.13
2018-11-10T11:11:29.233Z,7.13
2018-11-10T11:13:57.365Z,7.50
2018-11-10T11:16:25.534Z,7.53
2018-11-10T11:18:53.695Z,6.80
2018-11-10T11:21:21.870Z,7.33
2018-11-10T11:23:50.049Z,7.10
2018-11-10T11:26:18.214Z,7.23
2018-11-10T11:28:46.357Z,6.93
2018-11-10T11:31:14.596Z,6.73
2018-11-10T11:33:42.725Z,6.67
2018-11-10T11:36:10.854Z,6.03
2018-11-10T11:38:39.022Z,7.60
2018-11-10T11:41:07.273Z,6.93
2018-11-10T11:43:35.316Z,6.47
2018-11-10T11:46:03.463Z,7.20
2018-11-10T11:48:31.585Z,6.97
2018-11-10T11:50:59.739Z,6.17
2018-11-10T11:53:27.896Z,7.30
2018-11-10T11:55:56.049Z,6.67
2018-11-10T11:58:24.247Z,7.57
2018-11-10T12:00:52.339Z,6.93
2018-11-10T12:03:20.469Z,6.57
2018-11-10T12:05:48.626Z,5.40
2018-11-10T12:08:16.790Z,6.27
2018-11-10T12:10:44.957Z,7.00
2018-11-10T12:13:13.125Z,6.43
2018-11-10T12:15:41.277Z,6.10
2018-11-10T12:18:09.446Z,7.07
2018-11-10T12:20:37.584Z,5.90
2018-11-10T12:23:05.727Z,6.60
2018-11-10T12:25:33.886Z,6.07
2018-11-10T12:28:02.037Z,7.30
2018-11-10T12:30:30.176Z,6.17
2018-11-10T12:32:58.352Z,6.70
2018-11-10T12:35:26.500Z,6.20
2018-11-10T12:37:54.665Z,6.77
2018-11-10T12:40:22.809Z,5.73
2018-11-10T12:42:50.958Z,7.90
2018-11-10T12:45:19.097Z,6.73
2018-11-10T12:47:47.239Z,7.03
2018-11-10T12:50:15.774Z,7.17
2018-11-10T12:52:44.871Z,5.30
2018-11-10T12:55:14.207Z,6.80
2018-11-10T12:57:42.971Z,6.00
2018-11-10T13:00:12.685Z,6.60
2018-11-10T13:02:40.874Z,7.00
2018-11-10T13:05:10.146Z,6.97
2018-11-10T13:07:38.306Z,6.67
2018-11-10T13:10:07.126Z,6.40
2018-11-10T13:12:35.347Z,7.83
2018-11-10T13:15:03.467Z,6.10
2018-11-10T13:17:31.709Z,5.87
2018-11-10T13:19:59.802Z,6.97
2018-11-10T13:22:27.985Z,5.77
2018-11-10T13:24:56.141Z,6.30
2018-11-10T13:27:24.286Z,6.60
2018-11-10T13:29:52.425Z,7.80
2018-11-10T13:32:20.603Z,6.27
2018-11-10T13:34:48.767Z,6.60
2018-11-10T13:37:16.912Z,5.03
2018-11-10T13:39:51.826Z,7.63
2018-11-10T13:42:20.039Z,8.33
2018-11-10T13:44:48.155Z,6.93
2018-11-10T13:47:16.327Z,6.70
2018-11-10T13:49:44.527Z,6.97
2018-11-10T13:52:13.126Z,5.83
2018-11-10T13:54:40.863Z,6.47
2018-11-10T13:57:09.028Z,5.10
2018-11-10T13:59:43.813Z,7.53
2018-11-10T14:02:12.007Z,6.30
2018-11-10T14:04:40.161Z,6.13
2018-11-10T14:07:08.306Z,5.93
2018-11-10T14:09:36.465Z,6.93
2018-11-10T14:12:05.137Z,5.97
2018-11-10T14:14:33.322Z,5.80
2018-11-10T14:17:01.501Z,6.33
2018-11-10T14:19:29.659Z,6.83
2018-11-10T14:21:57.806Z,7.27
2018-11-10T14:24:25.949Z,6.13
2018-11-10T14:26:54.110Z,6.77
2018-11-10T14:29:22.304Z,7.40
2018-11-10T14:31:50.445Z,6.53
2018-11-10T14:34:18.590Z,6.73
2018-11-10T14:36:46.748Z,7.50
2018-11-10T14:39:14.886Z,7.00
2018-11-10T14:41:43.013Z,5.93
2018-11-10T14:44:11.171Z,6.77
2018-11-10T14:46:39.302Z,7.93
2018-11-10T14:49:07.894Z,7.27
2018-11-10T14:51:36.043Z,7.20
2018-11-10T14:54:04.545Z,7.30
2018-11-10T14:56:32.682Z,6.43
2018-11-10T14:59:00.834Z,6.37
2018-11-10T15:01:28.965Z,6.03
2018-11-10T15:03:57.241Z,6.43
2018-11-10T15:06:25.376Z,5.93
2018-11-10T15:08:53.573Z,5.87
2018-11-10T15:11:21.735Z,6.00
2018-11-10T15:13:49.870Z,6.87
2018-11-10T15:16:18.010Z,5.43
2018-11-10T15:18:46.150Z,6.23
2018-11-10T15:21:14.297Z,6.57
2018-11-10T15:23:42.449Z,5.30
2018-11-10T15:26:10.602Z,6.40
2018-11-10T15:28:38.769Z,6.03
2018-11-10T15:31:06.917Z,6.10
2018-11-10T15:33:35.091Z,6.27
2018-11-10T15:36:03.321Z,6.17
2018-11-10T15:38:31.491Z,6.53
2018-11-10T15:40:59.633Z,6.30
2018-11-10T15:43:27.802Z,6.60
2018-11-10T15:45:55.962Z,9.00
2018-11-10T15:48:24.108Z,7.13
2018-11-10T15:50:52.252Z,6.93
2018-11-10T15:53:20.397Z,7.23
2018-11-10T15:55:48.537Z,6.67
2018-11-10T15:58:16.687Z,5.37
2018-11-10T16:00:44.902Z,6.40
2018-11-10T16:03:13.039Z,7.13
2018-11-10T16:05:41.193Z,5.73
2018-11-10T16:08:09.345Z,6.10
2018-11-10T16:10:37.495Z,6.10
2018-11-10T16:13:05.630Z,8.10
2018-11-10T16:15:33.770Z,8.13
2018-11-10T16:18:01.944Z,7.43
2018-11-10T16:20:30.081Z,9.40
2018-11-10T16:22:58.243Z,6.73
2018-11-10T16:25:26.398Z,6.27
2018-11-10T16:27:54.614Z,6.57
2018-11-10T16:30:22.688Z,7.53
2018-11-10T16:32:51.081Z,7.90
2018-11-10T16:35:19.233Z,7.67
2018-11-10T16:37:47.374Z,7.43
2018-11-10T16:40:18.579Z,7.47
2018-11-10T16:42:47.373Z,7.67
2018-11-10T16:45:16.260Z,9.20
2018-11-10T16:47:44.392Z,8.40
2018-11-10T16:50:12.555Z,7.33
2018-11-10T16:52:41.574Z,7.37
2018-11-10T16:55:09.915Z,6.90
2018-11-10T16:57:38.448Z,8.57
2018-11-10T17:00:09.042Z,8.63
2018-11-10T17:02:37.173Z,7.83
2018-11-10T17:05:06.116Z,7.53
2018-11-10T17:07:34.311Z,8.23
2018-11-10T17:10:02.458Z,10.07
2018-11-10T17:12:30.587Z,7.37
2018-11-10T17:14:58.705Z,6.97
2018-11-10T17:17:26.885Z,5.97
2018-11-10T17:19:55.045Z,6.90
2018-11-10T17:22:23.242Z,7.50
2018-11-10T17:24:51.328Z,5.90
2018-11-10T17:27:19.470Z,6.83
2018-11-10T17:29:47.611Z,5.97
2018-11-10T17:32:15.759Z,7.40
2018-11-10T17:34:43.931Z,6.70
2018-11-10T17:37:12.113Z,6.83
2018-11-10T17:39:40.328Z,4.57
2018-11-10T17:42:08.504Z,6.67
2018-11-10T17:44:36.590Z,6.00
2018-11-10T17:47:05.083Z,17.73
2018-11-10T17:49:33.586Z,10.63
2018-11-10T17:52:01.746Z,15.20
2018-11-10T17:54:29.915Z,9.40
2018-11-10T17:56:58.006Z,6.73
2018-11-10T17:59:26.177Z,7.57
2018-11-10T18:01:54.425Z,7.00
2018-11-10T18:04:22.485Z,8.27
2018-11-10T18:06:50.793Z,7.27
2018-11-10T18:09:19.001Z,7.37
2018-11-10T18:11:47.982Z,6.00
2018-11-10T18:14:16.158Z,5.80
2018-11-10T18:16:44.332Z,5.57
2018-11-10T18:19:12.949Z,5.57
2018-11-10T18:21:41.099Z,5.63
2018-11-10T18:24:09.254Z,5.37
2018-11-10T18:26:37.413Z,6.00
2018-11-10T18:29:06.123Z,6.03
2018-11-10T18:31:34.790Z,5.50
2018-11-10T18:34:02.953Z,5.03
2018-11-10T18:36:31.113Z,5.20
2018-11-10T18:38:59.283Z,6.17
2018-11-10T18:41:27.439Z,5.03
2018-11-10T18:43:55.601Z,5.30
2018-11-10T18:46:23.799Z,5.20
2018-11-10T18:48:51.964Z,6.17
2018-11-10T18:51:20.135Z,6.33
2018-11-10T18:53:48.365Z,4.57
2018-11-10T18:56:16.522Z,5.63
2018-11-10T18:58:44.699Z,6.00
2018-11-10T19:01:12.918Z,6.57
2018-11-10T19:03:41.102Z,6.80
2018-11-10T19:06:09.394Z,5.80
2018-11-10T19:08:37.515Z,6.60
2018-11-10T19:11:05.643Z,5.63
2018-11-10T19:13:33.838Z,6.53
2018-11-10T19:16:02.002Z,6.60
2018-11-10T19:18:30.170Z,5.50
2018-11-10T19:20:58.350Z,6.83
2018-11-10T19:23:26.542Z,6.20
2018-11-10T19:25:54.690Z,6.97
2018-11-10T19:28:22.915Z,8.67
2018-11-10T19:30:51.061Z,9.97
2018-11-10T19:33:19.205Z,7.90
2018-11-10T19:35:47.351Z,7.90
2018-11-10T19:38:15.486Z,6.20
2018-11-10T19:40:50.326Z,5.43
2018-11-10T19:43:18.491Z,5.13
2018-11-10T19:45:46.664Z,7.13
2018-11-10T19:48:14.911Z,5.90
2018-11-10T19:50:43.117Z,5.30
2018-11-10T19:53:11.192Z,6.17
2018-11-10T19:55:39.336Z,5.37
2018-11-10T19:58:07.469Z,5.97
2018-11-10T20:00:35.664Z,6.73
2018-11-10T20:03:03.769Z,9.20
2018-11-10T20:05:31.926Z,8.00
2018-11-10T20:08:00.063Z,6.10
2018-11-10T20:10:28.222Z,6.00
2018-11-10T20:12:56.416Z,5.57
2018-11-10T20:15:24.565Z,5.83
2018-11-10T20:17:52.722Z,6.23
2018-11-10T20:20:20.883Z,5.43
2018-11-10T20:22:49.087Z,6.20
2018-11-10T20:25:18.289Z,5.50
2018-11-10T20:27:46.445Z,6.73
2018-11-10T20:30:16.998Z,5.73
2018-11-10T20:32:45.209Z,6.43
2018-11-10T20:35:13.929Z,6.53
2018-11-10T20:37:42.823Z,6.50
2018-11-10T20:40:12.029Z,6.10
2018-11-10T20:42:40.407Z,6.47
2018-11-10T20:45:11.860Z,6.03
2018-11-10T20:47:40.585Z,5.73
2018-11-10T20:50:08.759Z,5.90
2018-11-10T20:52:37.690Z,6.03
2018-11-10T20:55:07.789Z,5.17
2018-11-10T20:57:36.614Z,5.70
2018-11-10T21:00:06.600Z,4.57
2018-11-10T21:02:34.736Z,4.63
2018-11-10T21:05:03.000Z,5.17
2018-11-10T21:07:31.219Z,4.97
2018-11-10T21:09:59.368Z,5.20
2018-11-10T21:12:27.537Z,6.00
2018-11-10T21:14:55.715Z,5.83
2018-11-10T21:17:23.890Z,4.93
2018-11-10T21:19:52.033Z,5.00
2018-11-10T21:22:20.186Z,5.80
2018-11-10T21:24:48.401Z,5.80
2018-11-10T21:27:16.550Z,7.10
2018-11-10T21:29:46.430Z,11.93
2018-11-10T21:32:14.680Z,9.50
2018-11-10T21:34:42.937Z,7.70
2018-11-10T21:37:11.084Z,6.27
2018-11-10T21:39:39.287Z,5.00
2018-11-10T21:42:07.431Z,6.13
2018-11-10T21:44:35.607Z,6.00
2018-11-10T21:47:03.812Z,7.73
2018-11-10T21:49:32.090Z,5.93
2018-11-10T21:52:00.173Z,5.33
2018-11-10T21:54:28.356Z,6.50
2018-11-10T21:56:56.506Z,7.67
2018-11-10T21:59:24.687Z,6.40
2018-11-10T22:01:52.881Z,8.10
2018-11-10T22:04:21.130Z,6.83
2018-11-10T22:06:49.386Z,6.07
2018-11-10T22:09:17.690Z,4.77
2018-11-10T22:11:45.687Z,5.77
2018-11-10T22:14:13.828Z,6.30
2018-11-10T22:16:41.979Z,5.87
2018-11-10T22:19:10.191Z,5.80
2018-11-10T22:21:38.322Z,5.00
2018-11-10T22:24:06.480Z,5.60
2018-11-10T22:26:34.665Z,5.03
2018-11-10T22:29:02.806Z,5.00
2018-11-10T22:31:30.960Z,5.10
2018-11-10T22:33:59.115Z,5.20
2018-11-10T22:36:27.343Z,4.93
2018-11-10T22:38:55.698Z,5.00
2018-11-10T22:41:24.003Z,5.00
2018-11-10T22:43:52.143Z,5.90
2018-11-10T22:46:20.305Z,5.53
2018-11-10T22:48:48.441Z,4.30
2018-11-10T22:51:16.662Z,6.17
2018-11-10T22:53:44.821Z,5.60
2018-11-10T22:56:12.981Z,6.10
2018-11-10T22:58:41.138Z,5.57
2018-11-10T23:01:10.215Z,4.90
2018-11-10T23:03:39.531Z,5.30
2018-11-10T23:06:08.821Z,5.10
2018-11-10T23:08:36.973Z,5.43
2018-11-10T23:11:05.168Z,5.80
2018-11-10T23:13:33.398Z,5.23
2018-11-10T23:16:01.534Z,4.47
2018-11-10T23:18:29.721Z,5.70
2018-11-10T23:20:57.852Z,4.87
2018-11-10T23:23:26.110Z,5.70
2018-11-10T23:25:54.193Z,4.77
2018-11-10T23:28:22.330Z,5.47
2018-11-10T23:30:50.490Z,5.00
2018-11-10T23:33:18.637Z,4.83
2018-11-10T23:35:46.785Z,6.30
2018-11-10T23:38:14.937Z,5.10
2018-11-10T23:40:43.083Z,6.00
2018-11-10T23:43:11.224Z,4.40
2018-11-10T23:45:39.370Z,5.23
2018-11-10T23:48:07.529Z,5.40
2018-11-10T23:50:35.670Z,5.27
2018-11-10T23:53:03.820Z,5.80
2018-11-10T23:55:31.966Z,6.60
2018-11-10T23:58:00.113Z,8.50
